Time;durP1;ratioP1;P1;durP2;ratioP2;P2;SDS_P1;SDS_P2;PMS_P1;PMS_P2;Temp;Humidity;BMP_temperature;BMP_pressure;BME280_temperature;BME280_humidity;BME280_pressure;Samples;Min_cycle;Max_cycle;Signal;HPM_P1;HPM_P2
2022/12/01 00:01:19;;;;;;;67.80;26.73;;;-0.90;73.80;;;;;;4968277;28;114584;-82
2022/12/01 00:03:46;;;;;;;64.03;27.25;;;-0.80;73.80;;;;;;4953357;28;117862;-81
2022/12/01 00:06:20;;;;;;;59.97;26.95;;;-0.70;73.60;;;;;;4963251;28;114689;-80
2022/12/01 00:11:36;;;;;;;57.50;21.55;;;-0.60;73.30;;;;;;4988710;28;114527;-80
2022/12/01 00:14:04;;;;;;;55.22;23.58;;;-0.60;72.80;;;;;;4953922;28;115303;-81
2022/12/01 00:16:31;;;;;;;63.33;25.90;;;-0.70;72.80;;;;;;4970594;28;114919;-81
2022/12/01 00:18:58;;;;;;;57.95;23.25;;;-0.80;72.70;;;;;;4971206;28;114369;-80
2022/12/01 00:21:26;;;;;;;63.92;25.40;;;-0.90;72.80;;;;;;4987151;28;114457;-80
2022/12/01 00:23:54;;;;;;;66.75;27.08;;;-0.90;73.00;;;;;;4986685;28;115125;-82
2022/12/01 00:26:22;;;;;;;56.13;22.77;;;-0.90;73.00;;;;;;4985694;28;114894;-80
2022/12/01 00:28:51;;;;;;;60.88;26.25;;;-1.00;73.00;;;;;;4985721;28;114603;-82
2022/12/01 00:31:18;;;;;;;62.30;25.10;;;-1.10;73.00;;;;;;4973322;28;115257;-81
2022/12/01 00:33:46;;;;;;;63.45;25.88;;;-1.10;73.20;;;;;;4964766;28;115144;-81
2022/12/01 00:36:13;;;;;;;66.85;26.70;;;-1.10;73.40;;;;;;4912572;28;114788;-82
2022/12/01 00:38:40;;;;;;;66.82;26.23;;;-1.00;73.50;;;;;;4974629;28;114666;-80
2022/12/01 00:41:07;;;;;;;65.45;25.77;;;-1.00;73.50;;;;;;4973041;28;114356;-81
2022/12/01 00:43:35;;;;;;;64.78;26.67;;;-1.00;73.40;;;;;;4965509;28;114294;-81
2022/12/01 00:46:02;;;;;;;61.25;24.15;;;-1.00;73.40;;;;;;4928967;28;115326;-80
2022/12/01 00:48:29;;;;;;;68.68;26.42;;;-0.90;73.40;;;;;;4946058;28;114649;-81
2022/12/01 00:50:56;;;;;;;55.97;22.85;;;-1.00;73.30;;;;;;4946687;28;114329;-81
2022/12/01 00:53:24;;;;;;;58.33;22.80;;;-1.00;73.20;;;;;;4945870;28;118627;-81
2022/12/01 00:55:52;;;;;;;54.45;21.83;;;-1.00;73.30;;;;;;4930157;28;114821;-80
2022/12/01 00:58:21;;;;;;;58.72;23.38;;;-1.00;73.40;;;;;;4964227;28;114643;-80
2022/12/01 01:00:55;;;;;;;65.40;26.52;;;-1.00;73.40;;;;;;4945193;28;114516;-80
2022/12/01 01:03:23;;;;;;;55.05;23.42;;;-1.00;73.40;;;;;;4964958;28;115002;-80
2022/12/01 01:05:50;;;;;;;60.13;25.05;;;-1.00;73.50;;;;;;4965455;28;114551;-80
2022/12/01 01:08:24;;;;;;;61.30;26.85;;;-0.90;73.60;;;;;;4954696;28;114818;-81
2022/12/01 01:11:05;;;;;;;57.53;23.77;;;-0.90;73.60;;;;;;4972266;28;114446;-80
2022/12/01 01:13:33;;;;;;;54.78;22.80;;;-0.90;73.60;;;;;;4968580;28;116354;-80
2022/12/01 01:16:15;;;;;;;61.85;23.88;;;-0.80;73.30;;;;;;4967484;28;114615;-80
2022/12/01 01:18:43;;;;;;;58.05;24.80;;;-0.90;73.40;;;;;;4948857;28;114743;-81
2022/12/01 01:21:13;;;;;;;67.63;24.77;;;-0.90;73.20;;;;;;4971775;28;114470;-81
2022/12/01 01:23:40;;;;;;;57.40;24.20;;;-0.90;73.20;;;;;;4969730;28;115006;-81
2022/12/01 01:26:29;;;;;;;69.97;24.98;;;-1.00;73.30;;;;;;4968714;28;114607;-81
2022/12/01 01:29:00;;;;;;;58.78;23.63;;;-1.00;73.40;;;;;;4951326;28;114678;-81
2022/12/01 01:31:29;;;;;;;55.70;22.38;;;-1.00;73.50;;;;;;4968606;28;114451;-80
2022/12/01 01:33:57;;;;;;;57.75;23.60;;;-0.90;73.50;;;;;;4985189;28;115570;-80
2022/12/01 01:36:24;;;;;;;62.50;23.38;;;-0.90;73.40;;;;;;4989654;28;114551;-80
2022/12/01 01:38:53;;;;;;;59.70;25.15;;;-1.00;73.40;;;;;;4992595;28;114280;-80
2022/12/01 01:41:21;;;;;;;58.42;22.27;;;-0.90;73.50;;;;;;4956760;28;114501;-81
2022/12/01 01:43:52;;;;;;;63.75;26.27;;;-0.90;73.60;;;;;;4987098;28;115257;-80
2022/12/01 01:46:25;;;;;;;61.03;24.23;;;-0.80;73.60;;;;;;4990595;28;115929;-81
2022/12/01 01:48:53;;;;;;;61.63;24.33;;;-0.80;73.70;;;;;;4990612;28;118705;-81
2022/12/01 01:51:24;;;;;;;61.05;24.73;;;-0.70;73.50;;;;;;4990341;28;114800;-80
2022/12/01 01:53:54;;;;;;;65.32;25.83;;;-0.70;73.40;;;;;;4972814;28;115184;-81
2022/12/01 01:56:22;;;;;;;64.07;25.65;;;-0.70;73.20;;;;;;4990766;28;114648;-81
2022/12/01 01:58:49;;;;;;;63.83;27.02;;;-0.60;73.40;;;;;;4950132;28;119917;-80
2022/12/01 02:01:16;;;;;;;64.15;24.88;;;-0.60;73.30;;;;;;4957139;28;114291;-80
2022/12/01 02:03:43;;;;;;;66.90;26.13;;;-0.50;73.20;;;;;;4957047;28;115326;-79
2022/12/01 02:06:11;;;;;;;63.42;25.75;;;-0.50;73.10;;;;;;4972944;28;115077;-80
2022/12/01 02:08:38;;;;;;;63.35;25.20;;;-0.50;73.20;;;;;;4974135;28;114507;-80
2022/12/01 02:11:47;;;;;;;63.80;24.20;;;-0.40;73.30;;;;;;4975654;28;115778;-81
2022/12/01 02:14:55;;;;;;;63.17;24.55;;;-0.40;73.30;;;;;;4991365;28;116170;-81
2022/12/01 02:17:25;;;;;;;71.95;26.90;;;-0.40;73.20;;;;;;4974822;28;114982;-82
2022/12/01 02:20:20;;;;;;;63.60;26.88;;;-0.30;73.10;;;;;;4994935;28;114346;-82
2022/12/01 02:23:40;;;;;;;68.38;26.33;;;-0.20;73.00;;;;;;4994472;28;114770;-81
2022/12/01 02:26:25;;;;;;;59.67;24.75;;;-0.20;72.70;;;;;;4990012;28;115346;-81
2022/12/01 02:29:08;;;;;;;63.95;25.77;;;-0.10;72.50;;;;;;4986704;28;114777;-81
2022/12/01 02:31:54;;;;;;;67.72;26.58;;;-0.10;72.40;;;;;;4990125;28;116119;-81
2022/12/01 02:35:01;;;;;;;73.05;28.95;;;-0.10;72.20;;;;;;4993964;28;114520;-81
2022/12/01 02:37:54;;;;;;;66.97;26.33;;;-0.20;72.20;;;;;;4992706;28;116609;-82
2022/12/01 02:40:28;;;;;;;62.30;25.42;;;-0.20;72.20;;;;;;4970139;28;114770;-80
2022/12/01 02:43:19;;;;;;;67.65;27.02;;;-0.20;72.40;;;;;;4986614;28;114615;-80
2022/12/01 02:46:19;;;;;;;67.90;28.10;;;-0.20;72.50;;;;;;4967366;28;114585;-82
2022/12/01 02:48:48;;;;;;;69.93;26.45;;;-0.20;72.20;;;;;;4954652;28;115180;-81
2022/12/01 02:51:20;;;;;;;75.85;28.02;;;-0.20;72.20;;;;;;4956281;28;117957;-81
2022/12/01 02:53:48;;;;;;;66.97;26.42;;;-0.30;72.10;;;;;;4960030;28;114430;-81
2022/12/01 02:56:19;;;;;;;64.20;25.35;;;-0.30;72.20;;;;;;4967077;28;114917;-81
2022/12/01 02:58:46;;;;;;;65.93;26.67;;;-0.30;72.20;;;;;;4965720;28;115730;-80
2022/12/01 03:01:33;;;;;;;60.17;25.83;;;-0.30;72.30;;;;;;4971619;28;115275;-82
2022/12/01 03:04:20;;;;;;;66.97;26.20;;;-0.40;72.10;;;;;;4970914;28;114536;-82
2022/12/01 03:07:32;;;;;;;58.13;22.55;;;-0.60;72.60;;;;;;4968302;28;114357;-81
2022/12/01 03:10:24;;;;;;;63.65;24.98;;;-0.60;72.50;;;;;;4967160;28;115022;-81
2022/12/01 03:13:39;;;;;;;60.38;25.33;;;-0.60;72.60;;;;;;4964568;28;114616;-81
2022/12/01 03:16:26;;;;;;;52.63;19.57;;;-0.50;72.70;;;;;;4966678;28;116155;-81
2022/12/01 03:19:00;;;;;;;60.50;25.13;;;-0.60;72.50;;;;;;4951046;28;114401;-81
2022/12/01 03:21:50;;;;;;;55.05;23.20;;;-0.60;72.60;;;;;;4946057;28;115111;-79
2022/12/01 03:24:20;;;;;;;69.80;28.13;;;-0.70;72.50;;;;;;4965662;28;114614;-80
2022/12/01 03:26:50;;;;;;;57.53;23.30;;;-0.60;72.60;;;;;;4950000;28;114676;-80
2022/12/01 03:29:27;;;;;;;64.15;24.98;;;-0.70;72.50;;;;;;4946113;28;114603;-80
2022/12/01 03:31:58;;;;;;;64.32;26.65;;;-0.60;72.50;;;;;;4947266;28;115050;-80
2022/12/01 03:34:58;;;;;;;58.97;23.48;;;-0.60;72.50;;;;;;4966316;28;114835;-81
2022/12/01 03:37:36;;;;;;;67.07;25.20;;;-0.60;72.40;;;;;;4961547;28;114646;-81
2022/12/01 03:40:06;;;;;;;57.55;24.88;;;-0.60;72.50;;;;;;4951439;28;114887;-80
2022/12/01 03:42:40;;;;;;;59.28;25.20;;;-0.60;72.20;;;;;;4944914;28;115444;-80
2022/12/01 03:45:23;;;;;;;61.53;24.87;;;-0.60;72.20;;;;;;4966434;28;114640;-81
2022/12/01 03:47:51;;;;;;;57.50;24.27;;;-0.60;72.30;;;;;;4951613;28;114437;-82
2022/12/01 03:50:18;;;;;;;57.67;24.52;;;-0.50;72.30;;;;;;4975069;28;114538;-83
2022/12/01 03:53:10;;;;;;;63.00;24.60;;;-0.50;72.30;;;;;;4970414;28;115085;-82
2022/12/01 03:55:41;;;;;;;61.78;24.38;;;-0.50;72.00;;;;;;4969117;28;115035;-79
2022/12/01 03:58:15;;;;;;;58.33;25.85;;;-0.50;71.90;;;;;;4968520;28;114419;-81
2022/12/01 04:00:42;;;;;;;54.55;23.42;;;-0.50;71.90;;;;;;4969345;28;114439;-82
2022/12/01 04:03:16;;;;;;;56.50;24.17;;;-0.50;72.00;;;;;;4967858;28;116701;-81
2022/12/01 04:05:44;;;;;;;53.22;23.13;;;-0.40;72.10;;;;;;4967836;28;114662;-82
2022/12/01 04:08:11;;;;;;;54.47;23.33;;;-0.40;71.90;;;;;;4984904;28;114409;-83
2022/12/01 04:10:38;;;;;;;57.80;23.85;;;-0.40;71.70;;;;;;4985445;28;114247;-82
2022/12/01 04:13:10;;;;;;;55.45;23.95;;;-0.30;71.70;;;;;;4984256;28;120575;-83
2022/12/01 04:15:38;;;;;;;56.72;24.70;;;-0.30;71.90;;;;;;4964568;28;114666;-82
2022/12/01 04:18:05;;;;;;;59.33;24.90;;;-0.30;71.80;;;;;;4964838;28;114348;-82
2022/12/01 04:20:32;;;;;;;50.35;22.83;;;-0.30;71.80;;;;;;4966556;28;114576;-81
2022/12/01 04:22:59;;;;;;;56.33;25.23;;;-0.30;71.40;;;;;;4966523;28;115396;-81
2022/12/01 04:25:26;;;;;;;58.22;25.83;;;-0.30;71.60;;;;;;4964617;28;114663;-81
2022/12/01 04:27:53;;;;;;;55.35;24.63;;;-0.30;71.70;;;;;;4967235;28;114500;-81
2022/12/01 04:30:21;;;;;;;54.08;22.35;;;-0.20;71.60;;;;;;4968306;28;114369;-81
2022/12/01 04:32:48;;;;;;;55.95;23.08;;;-0.20;71.10;;;;;;4966722;28;115047;-81
2022/12/01 04:35:15;;;;;;;49.30;21.83;;;-0.30;71.00;;;;;;4964538;28;114546;-80
2022/12/01 04:37:42;;;;;;;48.40;22.45;;;-0.30;70.90;;;;;;4968399;28;114673;-80
2022/12/01 04:40:10;;;;;;;51.85;21.58;;;-0.40;70.90;;;;;;4947119;28;114283;-80
2022/12/01 04:42:37;;;;;;;52.42;22.60;;;-0.50;71.00;;;;;;4962396;28;116225;-81
2022/12/01 04:45:05;;;;;;;56.05;24.10;;;-0.50;71.20;;;;;;4947213;28;114934;-81
2022/12/01 04:47:43;;;;;;;55.22;23.30;;;-0.50;71.40;;;;;;4964317;28;114348;-81
2022/12/01 04:50:11;;;;;;;58.30;26.10;;;-0.50;71.40;;;;;;4966350;28;114469;-81
2022/12/01 04:52:38;;;;;;;60.45;25.92;;;-0.40;71.40;;;;;;4966738;28;115023;-80
2022/12/01 04:55:07;;;;;;;57.38;24.00;;;-0.40;71.40;;;;;;4967245;28;115063;-81
2022/12/01 04:57:38;;;;;;;62.53;26.33;;;-0.50;71.40;;;;;;4966666;28;114524;-80
2022/12/01 05:00:12;;;;;;;50.03;21.00;;;-0.40;71.20;;;;;;4966898;28;114418;-80
2022/12/01 05:02:42;;;;;;;63.60;26.50;;;-0.50;71.40;;;;;;4948269;28;118244;-81
2022/12/01 05:05:10;;;;;;;60.03;25.20;;;-0.50;71.20;;;;;;4963936;28;114675;-81
2022/12/01 05:07:37;;;;;;;65.45;26.52;;;-0.50;71.40;;;;;;4947207;28;114728;-81
2022/12/01 05:10:05;;;;;;;68.57;27.90;;;-0.50;71.40;;;;;;4965137;28;114542;-81
2022/12/01 05:12:32;;;;;;;63.90;26.67;;;-0.40;71.30;;;;;;4963911;28;115206;-81
2022/12/01 05:14:59;;;;;;;55.35;23.75;;;-0.50;71.10;;;;;;4963538;28;114682;-80
2022/12/01 05:17:30;;;;;;;64.57;27.73;;;-0.50;71.20;;;;;;4969633;28;114440;-80
2022/12/01 05:22:51;;;;;;;62.08;26.40;;;-0.40;71.70;;;;;;4964751;28;115070;-80
2022/12/01 05:25:38;;;;;;;61.92;26.08;;;-0.30;71.40;;;;;;4983706;28;114893;-80
2022/12/01 05:28:05;;;;;;;60.95;26.10;;;-0.40;71.30;;;;;;4985435;28;114838;-81
2022/12/01 05:30:33;;;;;;;62.70;26.30;;;-0.30;71.30;;;;;;4989186;28;114978;-81
2022/12/01 05:33:00;;;;;;;61.50;24.70;;;-0.20;71.20;;;;;;4986981;28;115016;-81
2022/12/01 05:35:27;;;;;;;67.82;26.88;;;-0.30;70.70;;;;;;4990773;28;114662;-80
2022/12/01 05:37:54;;;;;;;62.33;25.33;;;-0.30;70.80;;;;;;4974356;28;114398;-82
2022/12/01 05:40:21;;;;;;;65.80;26.10;;;-0.30;71.20;;;;;;4981788;28;114310;-81
2022/12/01 05:42:48;;;;;;;64.50;25.85;;;-0.30;71.20;;;;;;4992094;28;115000;-80
2022/12/01 05:45:16;;;;;;;63.13;25.90;;;-0.20;70.90;;;;;;4990037;28;115112;-81
2022/12/01 05:47:44;;;;;;;64.43;28.50;;;-0.20;70.90;;;;;;4988534;28;114344;-81
2022/12/01 05:50:11;;;;;;;59.28;26.80;;;-0.10;71.10;;;;;;4988551;28;114337;-83
2022/12/01 05:52:38;;;;;;;69.05;29.83;;;-0.10;70.60;;;;;;4982543;28;115040;-81
2022/12/01 05:55:06;;;;;;;67.00;28.58;;;-0.10;70.70;;;;;;4969986;28;115231;-82
2022/12/01 05:57:33;;;;;;;60.38;25.77;;;0.00;70.70;;;;;;4969568;28;114566;-82
2022/12/01 06:00:00;;;;;;;59.28;24.95;;;0.00;70.30;;;;;;4974788;28;114647;-82
2022/12/01 06:02:40;;;;;;;70.65;27.95;;;-0.10;70.10;;;;;;4987330;28;115044;-81
2022/12/01 06:05:08;;;;;;;63.55;23.98;;;-0.20;70.50;;;;;;4970052;28;114658;-81
2022/12/01 06:07:35;;;;;;;61.97;25.75;;;-0.30;70.60;;;;;;4988318;28;114299;-82
2022/12/01 06:10:03;;;;;;;55.38;23.58;;;-0.30;70.70;;;;;;4981571;28;114371;-81
2022/12/01 06:12:30;;;;;;;64.10;26.45;;;-0.20;71.00;;;;;;4985293;28;115643;-81
2022/12/01 06:14:57;;;;;;;65.78;27.73;;;-0.20;71.10;;;;;;4978514;28;119417;-81
2022/12/01 06:17:25;;;;;;;67.53;27.55;;;-0.10;70.90;;;;;;4987169;28;114386;-81
2022/12/01 06:19:52;;;;;;;59.50;26.65;;;0.10;70.60;;;;;;4988637;28;114303;-82
2022/12/01 06:22:19;;;;;;;70.65;29.70;;;0.10;70.50;;;;;;4987804;28;115049;-81
2022/12/01 06:24:46;;;;;;;69.45;29.35;;;0.20;70.40;;;;;;4969722;28;117582;-81
2022/12/01 06:27:13;;;;;;;71.60;30.40;;;0.30;70.20;;;;;;4985451;28;115830;-81
2022/12/01 06:29:40;;;;;;;75.53;29.55;;;0.30;70.10;;;;;;4952061;28;114566;-82
2022/12/01 06:32:08;;;;;;;63.97;26.98;;;0.40;70.00;;;;;;4949404;28;115559;-80
2022/12/01 06:34:36;;;;;;;65.88;28.13;;;0.40;70.10;;;;;;4966143;28;114757;-81
2022/12/01 06:37:03;;;;;;;67.65;27.85;;;0.40;69.90;;;;;;4949686;28;114646;-81
2022/12/01 06:39:33;;;;;;;69.25;28.88;;;0.50;70.00;;;;;;4967418;28;117589;-81
2022/12/01 06:42:01;;;;;;;73.32;29.30;;;0.50;69.70;;;;;;4970794;28;115424;-80
2022/12/01 06:44:28;;;;;;;68.85;28.00;;;0.50;69.40;;;;;;4972414;28;116790;-82
2022/12/01 06:46:56;;;;;;;67.25;30.13;;;0.40;69.80;;;;;;4983719;28;114588;-81
2022/12/01 06:49:23;;;;;;;74.22;31.77;;;0.40;69.90;;;;;;4970087;28;114504;-81
2022/12/01 06:51:50;;;;;;;70.22;29.65;;;0.40;69.70;;;;;;4967434;28;116419;-81
2022/12/01 06:54:17;;;;;;;71.63;29.52;;;0.50;69.70;;;;;;4966926;28;114610;-81
2022/12/01 06:56:45;;;;;;;76.50;31.33;;;0.50;69.70;;;;;;4977223;28;115397;-81
2022/12/01 06:59:12;;;;;;;77.15;32.08;;;0.60;69.70;;;;;;4968340;28;114593;-81
2022/12/01 07:01:40;;;;;;;74.78;30.65;;;0.60;69.60;;;;;;4966759;28;115082;-82
2022/12/01 07:04:07;;;;;;;70.10;31.02;;;0.60;69.40;;;;;;4965532;28;114786;-80
2022/12/01 07:06:34;;;;;;;66.85;29.88;;;0.60;69.20;;;;;;4966864;28;114259;-81
2022/12/01 07:09:01;;;;;;;77.68;33.58;;;0.60;69.10;;;;;;4967383;28;114689;-81
2022/12/01 07:11:31;;;;;;;69.15;30.98;;;0.60;69.00;;;;;;4948750;28;115235;-81
2022/12/01 07:13:58;;;;;;;73.18;32.65;;;0.60;69.00;;;;;;4947372;28;117960;-80
2022/12/01 07:16:25;;;;;;;74.07;32.33;;;0.60;69.00;;;;;;4964902;28;114461;-81
2022/12/01 07:18:52;;;;;;;72.25;32.50;;;0.60;69.10;;;;;;4966490;28;114389;-81
2022/12/01 07:21:19;;;;;;;77.68;32.38;;;0.60;69.20;;;;;;4965828;28;114986;-81
2022/12/01 07:23:47;;;;;;;73.72;31.73;;;0.60;69.10;;;;;;4964788;28;114579;-81
2022/12/01 07:26:16;;;;;;;75.78;30.95;;;0.70;69.00;;;;;;4966398;28;114389;-80
2022/12/01 07:28:43;;;;;;;76.18;33.45;;;0.70;68.80;;;;;;4965199;28;115941;-81
2022/12/01 07:31:16;;;;;;;69.63;29.60;;;0.80;68.90;;;;;;4964210;28;115199;-81
2022/12/01 07:33:44;;;;;;;71.97;28.92;;;0.70;68.70;;;;;;4964680;28;116724;-81
2022/12/01 07:36:11;;;;;;;67.00;29.25;;;0.60;68.70;;;;;;4966910;28;114508;-81
2022/12/01 07:38:38;;;;;;;74.28;29.48;;;0.60;68.90;;;;;;4966376;28;118132;-81
2022/12/01 07:41:11;;;;;;;66.57;29.88;;;0.60;69.00;;;;;;4959571;28;115552;-81
2022/12/01 07:43:38;;;;;;;78.05;31.85;;;0.60;69.00;;;;;;4967786;28;118821;-80
2022/12/01 07:46:13;;;;;;;69.88;28.83;;;0.70;69.00;;;;;;4965653;28;114559;-81
2022/12/01 07:48:58;;;;;;;72.07;28.92;;;0.70;68.90;;;;;;4964272;28;114372;-81
2022/12/01 07:51:27;;;;;;;68.10;29.25;;;0.70;69.00;;;;;;4932785;28;115149;-78
2022/12/01 07:53:54;;;;;;;77.88;32.85;;;0.90;69.00;;;;;;4964872;28;115669;-79
2022/12/01 07:56:24;;;;;;;75.57;31.65;;;0.80;68.80;;;;;;4966120;28;114353;-79
2022/12/01 07:58:51;;;;;;;64.88;27.85;;;0.90;68.80;;;;;;4947630;28;114567;-78
2022/12/01 08:01:21;;;;;;;72.60;30.50;;;0.90;68.90;;;;;;4973017;28;115167;-79
2022/12/01 08:03:49;;;;;;;67.88;29.60;;;1.00;68.90;;;;;;4972429;28;116206;-79
2022/12/01 08:06:17;;;;;;;69.10;28.92;;;1.00;68.60;;;;;;4964368;28;114445;-79
2022/12/01 08:08:44;;;;;;;78.85;30.40;;;1.00;68.50;;;;;;4967295;28;115223;-79
2022/12/01 08:11:31;;;;;;;71.32;30.08;;;1.10;68.40;;;;;;4963768;28;115062;-79
2022/12/01 08:13:59;;;;;;;62.45;27.35;;;1.20;68.40;;;;;;4920070;28;114929;-80
2022/12/01 08:16:26;;;;;;;71.68;29.52;;;1.20;68.10;;;;;;4974121;28;114518;-80
2022/12/01 08:18:53;;;;;;;59.47;26.13;;;1.10;68.20;;;;;;4965852;28;114305;-79
2022/12/01 08:21:22;;;;;;;66.45;29.67;;;1.10;68.30;;;;;;4965320;28;115474;-80
2022/12/01 08:23:56;;;;;;;66.32;29.25;;;1.10;68.10;;;;;;4964812;28;114565;-80
2022/12/01 08:26:24;;;;;;;;;;;1.20;68.00;;;;;;4948133;28;114654;-79
2022/12/01 08:29:00;;;;;;;67.63;27.60;;;1.10;68.30;;;;;;4964897;28;114536;-80
2022/12/01 08:31:30;;;;;;;67.47;28.15;;;1.20;68.00;;;;;;4964410;28;116240;-79
2022/12/01 08:33:57;;;;;;;61.42;27.58;;;1.10;67.60;;;;;;4946084;28;114643;-80
2022/12/01 08:36:24;;;;;;;59.25;27.75;;;1.00;67.90;;;;;;4964720;28;114752;-80
2022/12/01 08:38:53;;;;;;;66.03;28.75;;;1.00;67.90;;;;;;4967729;28;114429;-80
2022/12/01 08:41:20;;;;;;;61.50;26.90;;;1.00;68.10;;;;;;4964115;28;115027;-80
2022/12/01 08:43:47;;;;;;;62.20;26.80;;;1.00;68.10;;;;;;4965521;28;114822;-80
2022/12/01 08:46:26;;;;;;;61.67;26.27;;;1.10;68.10;;;;;;4964821;28;114549;-80
2022/12/01 08:48:56;;;;;;;58.63;25.80;;;1.10;68.00;;;;;;4944929;28;115056;-80
2022/12/01 08:51:24;;;;;;;62.92;26.55;;;1.10;67.40;;;;;;4963341;28;115266;-79
2022/12/01 08:53:51;;;;;;;61.58;27.05;;;1.10;67.60;;;;;;4965044;28;114396;-78
2022/12/01 08:56:33;;;;;;;55.80;25.88;;;1.10;67.70;;;;;;4965904;28;114296;-78
2022/12/01 08:59:01;;;;;;;50.92;22.70;;;1.10;67.30;;;;;;4965644;28;114407;-78
2022/12/01 09:01:28;;;;;;;52.22;22.33;;;1.00;67.70;;;;;;4965809;28;115023;-80
2022/12/01 09:04:07;;;;;;;53.38;23.95;;;1.10;67.30;;;;;;4947858;28;115599;-79
2022/12/01 09:06:40;;;;;;;51.25;23.23;;;0.90;67.20;;;;;;4956697;28;114394;-78
2022/12/01 09:09:13;;;;;;;47.22;22.65;;;0.90;67.50;;;;;;4984197;28;114580;-78
2022/12/01 09:11:42;;;;;;;51.38;23.55;;;1.00;67.80;;;;;;4967309;28;115148;-79
2022/12/01 09:14:10;;;;;;;46.97;21.95;;;1.00;67.60;;;;;;4984730;28;114722;-79
2022/12/01 09:16:38;;;;;;;54.17;23.08;;;1.10;67.50;;;;;;4967451;28;115496;-78
2022/12/01 09:19:05;;;;;;;56.60;23.55;;;1.00;67.50;;;;;;4965696;28;114459;-79
2022/12/01 09:21:33;;;;;;;56.13;25.77;;;1.10;67.10;;;;;;4965933;28;115001;-78
2022/12/01 09:24:01;;;;;;;57.10;24.20;;;1.10;67.10;;;;;;4966985;28;114667;-78
2022/12/01 09:26:28;;;;;;;49.35;23.05;;;1.10;67.30;;;;;;4983973;28;114503;-77
2022/12/01 09:28:58;;;;;;;56.30;24.80;;;1.10;67.30;;;;;;4987598;28;114239;-78
2022/12/01 09:31:25;;;;;;;54.20;23.35;;;1.10;67.10;;;;;;4970461;28;117868;-78
2022/12/01 09:34:06;;;;;;;53.05;23.60;;;1.10;67.30;;;;;;4950623;28;114797;-77
2022/12/01 09:36:34;;;;;;;50.67;22.52;;;1.10;67.30;;;;;;4969137;28;114280;-79
2022/12/01 09:39:02;;;;;;;60.05;26.08;;;0.90;66.20;;;;;;4968376;28;114404;-79
2022/12/01 09:42:00;;;;;;;56.53;26.73;;;0.80;66.90;;;;;;4950417;28;116290;-78
2022/12/01 09:44:50;;;;;;;54.97;24.00;;;0.70;67.40;;;;;;4965085;28;116690;-80
2022/12/01 09:47:31;;;;;;;55.17;23.15;;;0.80;67.70;;;;;;4935031;28;114421;-78
2022/12/01 09:50:22;;;;;;;49.38;21.75;;;1.00;67.60;;;;;;4951962;28;114505;-78
2022/12/01 09:52:57;;;;;;;57.83;23.60;;;1.10;67.40;;;;;;4934694;28;115448;-78
2022/12/01 09:55:25;;;;;;;52.47;24.52;;;1.20;67.40;;;;;;4946802;28;114824;-78
2022/12/01 09:57:54;;;;;;;54.05;24.45;;;1.10;66.70;;;;;;4967413;28;114571;-79
2022/12/01 10:00:36;;;;;;;51.40;23.25;;;1.00;67.00;;;;;;4967121;28;114486;-78
2022/12/01 10:03:35;;;;;;;48.85;23.63;;;1.00;67.30;;;;;;4966111;28;115053;-79
2022/12/01 10:06:09;;;;;;;51.15;23.85;;;1.00;67.30;;;;;;4965963;28;114711;-80
2022/12/01 10:09:23;;;;;;;54.03;22.27;;;1.10;67.70;;;;;;4936867;28;114442;-79
2022/12/01 10:11:56;;;;;;;60.40;26.05;;;1.20;67.50;;;;;;4966607;28;116201;-79
2022/12/01 10:14:24;;;;;;;48.05;22.17;;;1.20;67.50;;;;;;4965280;28;115253;-79
2022/12/01 10:17:00;;;;;;;30.63;15.98;;;1.20;67.20;;;;;;4984857;28;114704;-79
2022/12/01 10:19:55;;;;;;;35.90;19.30;;;1.10;66.90;;;;;;4987787;28;114291;-79
2022/12/01 10:23:00;;;;;;;21.30;10.93;;;1.00;66.90;;;;;;4986107;28;114414;-80
2022/12/01 10:25:37;;;;;;;30.95;15.88;;;0.80;66.80;;;;;;4984808;28;115224;-80
2022/12/01 10:28:30;;;;;;;31.33;15.65;;;0.70;67.20;;;;;;4969760;28;114700;-79
2022/12/01 10:31:19;;;;;;;32.67;16.20;;;0.80;67.40;;;;;;4985778;28;114381;-79
2022/12/01 10:34:00;;;;;;;29.10;15.40;;;0.70;67.60;;;;;;4986386;28;114509;-80
2022/12/01 10:36:28;;;;;;;26.05;14.05;;;0.80;67.80;;;;;;4985260;28;115270;-79
2022/12/01 10:38:55;;;;;;;30.25;16.73;;;0.80;67.70;;;;;;4967996;28;114572;-80
2022/12/01 10:41:23;;;;;;;37.78;17.67;;;0.80;67.50;;;;;;4986553;28;116607;-79
2022/12/01 10:43:52;;;;;;;37.67;16.88;;;0.80;67.50;;;;;;4969883;28;114617;-80
2022/12/01 10:46:23;;;;;;;39.13;18.00;;;0.80;67.70;;;;;;4986357;28;115366;-79
2022/12/01 10:48:57;;;;;;;26.20;12.45;;;0.90;67.80;;;;;;4967789;28;115060;-79
2022/12/01 10:51:25;;;;;;;95.90;67.47;;;0.80;67.60;;;;;;4967615;28;114608;-79
2022/12/01 10:54:05;;;;;;;58.65;27.55;;;0.80;67.60;;;;;;4966337;28;114447;-79
2022/12/01 10:56:33;;;;;;;88.05;39.08;;;0.70;67.70;;;;;;4966525;28;115568;-79
2022/12/01 10:59:03;;;;;;;265.27;109.65;;;0.70;68.00;;;;;;4949570;28;114955;-78
2022/12/01 11:01:34;;;;;;;41.85;20.20;;;0.70;68.10;;;;;;4934119;28;114413;-80
2022/12/01 11:04:32;;;;;;;38.90;21.20;;;0.70;68.00;;;;;;4985183;28;114468;-80
2022/12/01 11:07:00;;;;;;;34.20;17.20;;;0.80;68.10;;;;;;4968659;28;115205;-80
2022/12/01 11:09:28;;;;;;;39.05;18.15;;;0.80;68.00;;;;;;4968232;28;115269;-80
2022/12/01 11:12:02;;;;;;;38.70;19.45;;;0.80;68.20;;;;;;4948767;28;114541;-79
2022/12/01 11:14:50;;;;;;;33.90;17.35;;;0.90;68.30;;;;;;4949377;28;114953;-79
2022/12/01 11:17:35;;;;;;;35.72;18.83;;;0.90;68.20;;;;;;4947465;28;115056;-79
2022/12/01 11:20:33;;;;;;;33.75;15.80;;;0.90;68.20;;;;;;4965001;28;115406;-79
2022/12/01 11:23:24;;;;;;;29.45;15.70;;;0.90;68.00;;;;;;4967178;28;114635;-79
2022/12/01 11:26:26;;;;;;;28.85;16.10;;;0.90;67.90;;;;;;4966151;28;114341;-78
2022/12/01 11:28:57;;;;;;;32.95;17.55;;;0.90;68.10;;;;;;4964993;28;115128;-80
2022/12/01 11:31:48;;;;;;;31.90;16.65;;;1.00;68.30;;;;;;4965188;28;114709;-79
2022/12/01 11:34:22;;;;;;;35.90;18.42;;;1.00;68.30;;;;;;4971663;28;114466;-78
2022/12/01 11:37:00;;;;;;;36.53;17.73;;;1.00;68.30;;;;;;4987169;28;114488;-78
2022/12/01 11:39:40;;;;;;;32.58;17.55;;;1.10;68.20;;;;;;4932306;28;116228;-79
2022/12/01 11:42:40;;;;;;;37.15;17.35;;;1.10;68.30;;;;;;4945209;28;114771;-79
2022/12/01 11:45:19;;;;;;;35.25;17.55;;;1.10;68.20;;;;;;4962397;28;114431;-79
2022/12/01 11:48:10;;;;;;;35.75;19.30;;;1.10;68.10;;;;;;4966268;28;114594;-79
2022/12/01 11:50:41;;;;;;;40.20;17.77;;;1.10;68.00;;;;;;4978254;28;115015;-79
2022/12/01 11:53:37;;;;;;;39.63;20.23;;;1.10;68.00;;;;;;4984802;28;114722;-79
2022/12/01 11:56:22;;;;;;;35.72;18.15;;;1.10;68.10;;;;;;4980100;28;114660;-79
2022/12/01 11:58:59;;;;;;;32.72;17.75;;;1.10;68.00;;;;;;4966569;28;114520;-79
2022/12/01 12:02:17;;;;;;;32.55;16.45;;;1.10;68.20;;;;;;4948412;28;115094;-78
2022/12/01 12:05:06;;;;;;;33.92;17.23;;;1.10;68.20;;;;;;4964207;28;114664;-79
2022/12/01 12:08:20;;;;;;;39.58;21.15;;;1.10;68.30;;;;;;4966440;28;114464;-80
2022/12/01 12:11:21;;;;;;;32.07;16.87;;;1.20;68.30;;;;;;4964764;28;114749;-79
2022/12/01 12:14:05;;;;;;;38.60;18.88;;;1.20;68.00;;;;;;4965875;28;115484;-80
2022/12/01 12:17:20;;;;;;;38.75;19.15;;;1.20;67.90;;;;;;4964408;28;114541;-79
2022/12/01 12:19:50;;;;;;;36.90;19.00;;;1.10;67.90;;;;;;4968089;28;116151;-79
2022/12/01 12:22:52;;;;;;;38.17;19.75;;;1.10;68.00;;;;;;4986843;28;114408;-79
2022/12/01 12:25:46;;;;;;;35.42;18.35;;;1.20;68.20;;;;;;4968384;28;114961;-79
2022/12/01 12:29:01;;;;;;;35.70;18.70;;;1.20;68.20;;;;;;4985404;28;114486;-80
2022/12/01 12:31:36;;;;;;;38.03;18.42;;;1.20;68.20;;;;;;4984452;28;114853;-80
2022/12/01 12:34:21;;;;;;;38.28;18.75;;;1.30;68.20;;;;;;4985019;28;114547;-80
2022/12/01 12:36:57;;;;;;;34.78;18.05;;;1.30;67.80;;;;;;4983005;28;116901;-80
2022/12/01 12:39:51;;;;;;;33.38;17.63;;;1.20;67.80;;;;;;4984938;28;114856;-80
2022/12/01 12:43:02;;;;;;;32.53;17.35;;;1.30;67.70;;;;;;4984397;28;114422;-79
2022/12/01 12:46:00;;;;;;;31.23;16.05;;;1.20;67.50;;;;;;4985196;28;114391;-79
2022/12/01 12:48:50;;;;;;;30.80;17.85;;;1.10;67.40;;;;;;4984243;28;116203;-78
2022/12/01 12:51:54;;;;;;;35.40;19.38;;;1.10;67.50;;;;;;4983865;28;114733;-79
2022/12/01 12:54:37;;;;;;;34.53;17.33;;;1.10;67.60;;;;;;4968269;28;114891;-79
2022/12/01 12:57:10;;;;;;;32.42;17.60;;;1.10;67.50;;;;;;4984335;28;114539;-80
2022/12/01 13:00:02;;;;;;;30.98;16.67;;;1.00;67.60;;;;;;4967235;28;115021;-79
2022/12/01 13:02:57;;;;;;;35.20;17.95;;;1.10;67.60;;;;;;4983323;28;114997;-78
2022/12/01 13:05:35;;;;;;;;;;;1.00;67.80;;;;;;4985572;28;114416;-79
2022/12/01 13:08:17;;;;;;;36.05;18.58;;;0.90;67.80;;;;;;4984467;28;114510;-79